Explora — IXWQ — position and weather

sailwx.info

Track history (hours):
 
Tides and Currents Weather Stations Pressure Air Temp Water Temp Dewpoint Dewpoint Depression Visibility Wind Speed Wind Dir Waves Ship Positions

Oceanographic research ship Explora (Italy)

Detailed information on ship capabilities available from University of Delaware's Ocean Information Center.

Last reported at 2015-Jan-29 22:33 UTC. Time now 2015-Jan-31 16:12 UTC.
Position N 36°31' E 014°29'.

Length 73 m; draft 5.5 m.

Type: Dredging. MMSI: 247028700.

Date/timePositionNaut miles runAvg speedWind from/ knotsBaromVisibWave heightAir tempDewpointWater temp
2015-Jan-29 22:33N 36°31' E 014°29'1 0.7
2015-Jan-29 21:33N 36°31' E 014°28'2 1.6
2015-Jan-29 20:33N 36°31' E 014°27'2 1.8
2015-Jan-29 19:33N 36°33' E 014°25'2 2.3
2015-Jan-29 18:33N 36°34' E 014°23'3 2.5
2015-Jan-29 17:33N 36°36' E 014°21'2 2.3
2015-Jan-29 16:33N 36°38' E 014°19'1 1.0
2015-Jan-29 15:33N 36°38' E 014°18'4 3.5
2015-Jan-29 14:33N 36°37' E 014°13'3 3.0
2015-Jan-29 13:33N 36°37' E 014°10'0 0.5
2015-Jan-29 12:33N 36°37' E 014°10'4 4.4
2015-Jan-29 11:33N 36°39' E 014°06'1 1.2
2015-Jan-29 10:33N 36°39' E 014°07'1 1.4
2015-Jan-29 09:33N 36°39' E 014°09'1 1.2
2015-Jan-29 08:33N 36°39' E 014°10'1 1.5
2015-Jan-29 07:33N 36°40' E 014°12'1 1.4
2015-Jan-29 06:33N 36°40' E 014°13'5 5.0
2015-Jan-29 05:33N 36°44' E 014°10'2 1.8
2015-Jan-29 04:33N 36°46' E 014°11'1 1.1
2015-Jan-29 03:33N 36°46' E 014°13'2 1.6
2015-Jan-29 02:33N 36°45' E 014°12'1 1.3
2015-Jan-29 01:33N 36°44' E 014°12'1 1.4
2015-Jan-29 00:33N 36°42' E 014°12'1 1.1
2015-Jan-28 23:33N 36°41' E 014°11'1 1.0
2015-Jan-28 22:32N 36°40' E 014°11'1 0.7
2015-Jan-28 21:33N 36°39' E 014°11'2 0.7
2015-Jan-28 19:04N 36°38' E 014°11'1 1.0
2015-Jan-28 18:29N 36°37' E 014°11'1 1.0
2015-Jan-28 17:33N 36°36' E 014°11'7 6.9
2015-Jan-28 16:33N 36°37' E 014°03'12 8.0
2015-Jan-28 15:06N 36°37' E 013°48'4 0.1
2015-Jan-27 06:03N 36°37' E 013°44'2 3.5
2015-Jan-27 05:28N 36°37' E 013°46'2 2.0
2015-Jan-27 04:23N 36°36' E 013°49'1 1.4
2015-Jan-27 03:33N 36°36' E 013°50'1 1.0
2015-Jan-27 02:32N 36°35' E 013°51'2 1.2
2015-Jan-27 01:14N 36°35' E 013°53'2 3.3
2015-Jan-27 00:33N 36°35' E 013°56'0 0.1
2015-Jan-26 23:32N 36°35' E 013°56'2 1.6
2015-Jan-26 22:08N 36°35' E 013°59'1 1.0
2015-Jan-26 21:33N 36°35' E 013°59'2 1.6
2015-Jan-26 20:33N 36°35' E 014°01'2 1.9
2015-Jan-26 19:27N 36°36' E 014°04'1 0.9
2015-Jan-26 18:33N 36°36' E 014°05'2 2.0
2015-Jan-26 17:33N 36°36' E 014°07'3 2.9
2015-Jan-26 16:33N 36°37' E 014°11'1 1.3
2015-Jan-26 15:29N 36°37' E 014°12'2 2.5
2015-Jan-26 14:33N 36°37' E 014°15'1 0.8
2015-Jan-26 13:33N 36°38' E 014°15'0 0.3
2015-Jan-26 12:33N 36°38' E 014°15'1 0.5
2015-Jan-26 11:33N 36°38' E 014°14'0 0.3
2015-Jan-26 10:33N 36°38' E 014°14'0 0.3
2015-Jan-26 09:33N 36°38' E 014°13'6 6.4
2015-Jan-26 08:33N 36°42' E 014°06'9 9.2
2015-Jan-26 07:33N 36°46' E 013°56'8 8.5
2015-Jan-26 06:33N 36°50' E 013°47'8 7.9
2015-Jan-26 05:31N 36°54' E 013°38'  
2015-Jan-23 15:20N 37°56' E 011°36'  
Track history (hours):
 
Tides and Currents Weather Stations Pressure Air Temp Water Temp Dewpoint Dewpoint Depression Visibility Wind Speed Wind Dir Waves Ship Positions

Oceanographic research ship Explora (Italy)

Detailed information on ship capabilities available from University of Delaware's Ocean Information Center.

Last reported at 2015-Jan-29 22:33 UTC. Time now 2015-Jan-31 16:12 UTC.
Position N 36°31' E 014°29'.

Length 73 m; draft 5.5 m.

Type: Dredging. MMSI: 247028700.

Date/timePositionNaut miles runAvg speedWind from/ knotsBaromVisibWave heightAir tempDewpointWater temp
2015-Jan-29 22:33N 36°31' E 014°29'1 0.7
2015-Jan-29 21:33N 36°31' E 014°28'2 1.6
2015-Jan-29 20:33N 36°31' E 014°27'2 1.8
2015-Jan-29 19:33N 36°33' E 014°25'2 2.3
2015-Jan-29 18:33N 36°34' E 014°23'3 2.5
2015-Jan-29 17:33N 36°36' E 014°21'2 2.3
2015-Jan-29 16:33N 36°38' E 014°19'1 1.0
2015-Jan-29 15:33N 36°38' E 014°18'4 3.5
2015-Jan-29 14:33N 36°37' E 014°13'3 3.0
2015-Jan-29 13:33N 36°37' E 014°10'0 0.5
2015-Jan-29 12:33N 36°37' E 014°10'4 4.4
2015-Jan-29 11:33N 36°39' E 014°06'1 1.2
2015-Jan-29 10:33N 36°39' E 014°07'1 1.4
2015-Jan-29 09:33N 36°39' E 014°09'1 1.2
2015-Jan-29 08:33N 36°39' E 014°10'1 1.5
2015-Jan-29 07:33N 36°40' E 014°12'1 1.4
2015-Jan-29 06:33N 36°40' E 014°13'5 5.0
2015-Jan-29 05:33N 36°44' E 014°10'2 1.8
2015-Jan-29 04:33N 36°46' E 014°11'1 1.1
2015-Jan-29 03:33N 36°46' E 014°13'2 1.6
2015-Jan-29 02:33N 36°45' E 014°12'1 1.3
2015-Jan-29 01:33N 36°44' E 014°12'1 1.4
2015-Jan-29 00:33N 36°42' E 014°12'1 1.1
2015-Jan-28 23:33N 36°41' E 014°11'1 1.0
2015-Jan-28 22:32N 36°40' E 014°11'1 0.7
2015-Jan-28 21:33N 36°39' E 014°11'2 0.7
2015-Jan-28 19:04N 36°38' E 014°11'1 1.0
2015-Jan-28 18:29N 36°37' E 014°11'1 1.0
2015-Jan-28 17:33N 36°36' E 014°11'7 6.9
2015-Jan-28 16:33N 36°37' E 014°03'12 8.0
2015-Jan-28 15:06N 36°37' E 013°48'4 0.1
2015-Jan-27 06:03N 36°37' E 013°44'2 3.5
2015-Jan-27 05:28N 36°37' E 013°46'2 2.0
2015-Jan-27 04:23N 36°36' E 013°49'1 1.4
2015-Jan-27 03:33N 36°36' E 013°50'1 1.0
2015-Jan-27 02:32N 36°35' E 013°51'2 1.2
2015-Jan-27 01:14N 36°35' E 013°53'2 3.3
2015-Jan-27 00:33N 36°35' E 013°56'0 0.1
2015-Jan-26 23:32N 36°35' E 013°56'2 1.6
2015-Jan-26 22:08N 36°35' E 013°59'1 1.0
2015-Jan-26 21:33N 36°35' E 013°59'2 1.6
2015-Jan-26 20:33N 36°35' E 014°01'2 1.9
2015-Jan-26 19:27N 36°36' E 014°04'1 0.9
2015-Jan-26 18:33N 36°36' E 014°05'2 2.0
2015-Jan-26 17:33N 36°36' E 014°07'3 2.9
2015-Jan-26 16:33N 36°37' E 014°11'1 1.3
2015-Jan-26 15:29N 36°37' E 014°12'2 2.5
2015-Jan-26 14:33N 36°37' E 014°15'1 0.8
2015-Jan-26 13:33N 36°38' E 014°15'0 0.3
2015-Jan-26 12:33N 36°38' E 014°15'1 0.5
2015-Jan-26 11:33N 36°38' E 014°14'0 0.3
2015-Jan-26 10:33N 36°38' E 014°14'0 0.3
2015-Jan-26 09:33N 36°38' E 014°13'6 6.4
2015-Jan-26 08:33N 36°42' E 014°06'9 9.2
2015-Jan-26 07:33N 36°46' E 013°56'8 8.5
2015-Jan-26 06:33N 36°50' E 013°47'8 7.9
2015-Jan-26 05:31N 36°54' E 013°38'  
2015-Jan-23 15:20N 37°56' E 011°36'  

Dump ship's entire track history